sensor_id;sensor_type;location;lat;lon;timestamp;pressure;altitude;pressure_sealevel;temperature;humidity
71299;BME280;59083;47.974;21.722;2022-12-07T00:02:16;100341.87;;;1.78;100.00
71299;BME280;59083;47.974;21.722;2022-12-07T00:05:18;100343.81;;;1.76;100.00
71299;BME280;59083;47.974;21.722;2022-12-07T00:08:19;100340.47;;;1.74;100.00
71299;BME280;59083;47.974;21.722;2022-12-07T00:11:22;100337.12;;;1.72;100.00
71299;BME280;59083;47.974;21.722;2022-12-07T00:14:23;100338.37;;;1.68;100.00
71299;BME280;59083;47.974;21.722;2022-12-07T00:17:24;100333.22;;;1.57;100.00
71299;BME280;59083;47.974;21.722;2022-12-07T00:20:25;100338.34;;;1.58;100.00
71299;BME280;59083;47.974;21.722;2022-12-07T00:23:27;100342.63;;;1.59;100.00
71299;BME280;59083;47.974;21.722;2022-12-07T00:26:31;100352.56;;;1.56;100.00
71299;BME280;59083;47.974;21.722;2022-12-07T00:29:33;100348.25;;;1.55;100.00
71299;BME280;59083;47.974;21.722;2022-12-07T00:32:34;100338.72;;;1.54;100.00
71299;BME280;59083;47.974;21.722;2022-12-07T00:35:35;100345.06;;;1.51;100.00
71299;BME280;59083;47.974;21.722;2022-12-07T00:38:37;100343.69;;;1.47;100.00
71299;BME280;59083;47.974;21.722;2022-12-07T00:41:39;100347.81;;;1.50;100.00
71299;BME280;59083;47.974;21.722;2022-12-07T00:44:40;100347.00;;;1.49;100.00
71299;BME280;59083;47.974;21.722;2022-12-07T00:47:41;100344.38;;;1.49;100.00
71299;BME280;59083;47.974;21.722;2022-12-07T00:50:42;100346.44;;;1.46;100.00
71299;BME280;59083;47.974;21.722;2022-12-07T00:53:44;100344.03;;;1.43;100.00
71299;BME280;59083;47.974;21.722;2022-12-07T00:56:45;100348.75;;;1.39;100.00
71299;BME280;59083;47.974;21.722;2022-12-07T00:59:46;100340.28;;;1.36;100.00
71299;BME280;59083;47.974;21.722;2022-12-07T01:02:48;100341.50;;;1.32;100.00
71299;BME280;59083;47.974;21.722;2022-12-07T01:05:51;100347.03;;;1.29;100.00
71299;BME280;59083;47.974;21.722;2022-12-07T01:08:53;100347.72;;;1.31;100.00
71299;BME280;59083;47.974;21.722;2022-12-07T01:11:54;100350.72;;;1.26;100.00
71299;BME280;59083;47.974;21.722;2022-12-07T01:14:55;100351.22;;;1.20;100.00
71299;BME280;59083;47.974;21.722;2022-12-07T01:17:57;100346.81;;;1.20;100.00
71299;BME280;59083;47.974;21.722;2022-12-07T01:21:12;100350.44;;;1.19;100.00
71299;BME280;59083;47.974;21.722;2022-12-07T01:24:13;100345.41;;;1.16;100.00
71299;BME280;59083;47.974;21.722;2022-12-07T01:27:15;100336.72;;;1.16;100.00
71299;BME280;59083;47.974;21.722;2022-12-07T01:30:16;100341.84;;;1.17;100.00
71299;BME280;59083;47.974;21.722;2022-12-07T01:33:17;100339.28;;;1.06;100.00
71299;BME280;59083;47.974;21.722;2022-12-07T01:36:37;100333.75;;;1.09;100.00
71299;BME280;59083;47.974;21.722;2022-12-07T01:39:38;100333.91;;;1.08;100.00
71299;BME280;59083;47.974;21.722;2022-12-07T01:42:39;100325.22;;;1.07;100.00
71299;BME280;59083;47.974;21.722;2022-12-07T01:45:42;100329.03;;;1.03;100.00
71299;BME280;59083;47.974;21.722;2022-12-07T01:48:43;100332.22;;;0.86;100.00
71299;BME280;59083;47.974;21.722;2022-12-07T01:51:46;100332.09;;;0.88;100.00
71299;BME280;59083;47.974;21.722;2022-12-07T01:54:51;100322.81;;;0.83;100.00
71299;BME280;59083;47.974;21.722;2022-12-07T01:57:54;100318.25;;;0.86;100.00
71299;BME280;59083;47.974;21.722;2022-12-07T02:00:56;100332.72;;;0.80;100.00
71299;BME280;59083;47.974;21.722;2022-12-07T02:03:58;100325.34;;;0.85;100.00
71299;BME280;59083;47.974;21.722;2022-12-07T02:06:59;100329.41;;;0.78;100.00
71299;BME280;59083;47.974;21.722;2022-12-07T02:13:17;100329.66;;;0.75;100.00
71299;BME280;59083;47.974;21.722;2022-12-07T02:23:28;100344.44;;;0.76;100.00
71299;BME280;59083;47.974;21.722;2022-12-07T02:29:40;100330.16;;;0.69;100.00
71299;BME280;59083;47.974;21.722;2022-12-07T02:32:51;100323.25;;;0.68;100.00
71299;BME280;59083;47.974;21.722;2022-12-07T02:36:01;100318.25;;;0.65;100.00
71299;BME280;59083;47.974;21.722;2022-12-07T02:42:20;100322.75;;;0.74;100.00
71299;BME280;59083;47.974;21.722;2022-12-07T02:45:25;100325.00;;;0.78;100.00
71299;BME280;59083;47.974;21.722;2022-12-07T02:48:29;100323.91;;;0.81;100.00
71299;BME280;59083;47.974;21.722;2022-12-07T02:51:32;100319.50;;;0.81;100.00
71299;BME280;59083;47.974;21.722;2022-12-07T02:54:34;100314.13;;;0.83;100.00
71299;BME280;59083;47.974;21.722;2022-12-07T02:57:46;100317.59;;;0.83;100.00
71299;BME280;59083;47.974;21.722;2022-12-07T03:01:04;100325.56;;;0.82;100.00
71299;BME280;59083;47.974;21.722;2022-12-07T03:11:02;100319.44;;;1.13;100.00
71299;BME280;59083;47.974;21.722;2022-12-07T03:14:14;100324.94;;;1.10;100.00
71299;BME280;59083;47.974;21.722;2022-12-07T03:17:20;100323.62;;;1.25;100.00
71299;BME280;59083;47.974;21.722;2022-12-07T03:20:25;100322.88;;;1.35;100.00
71299;BME280;59083;47.974;21.722;2022-12-07T03:23:29;100324.28;;;1.39;100.00
71299;BME280;59083;47.974;21.722;2022-12-07T03:26:40;100325.16;;;1.49;100.00
71299;BME280;59083;47.974;21.722;2022-12-07T03:29:48;100317.16;;;1.50;100.00
71299;BME280;59083;47.974;21.722;2022-12-07T03:33:11;100317.91;;;1.62;100.00
71299;BME280;59083;47.974;21.722;2022-12-07T03:36:21;100309.31;;;1.60;100.00
71299;BME280;59083;47.974;21.722;2022-12-07T03:39:33;100314.75;;;1.68;100.00
71299;BME280;59083;47.974;21.722;2022-12-07T03:42:35;100316.41;;;1.69;100.00
71299;BME280;59083;47.974;21.722;2022-12-07T03:45:39;100303.53;;;1.66;100.00
71299;BME280;59083;47.974;21.722;2022-12-07T03:48:51;100302.56;;;1.67;100.00
71299;BME280;59083;47.974;21.722;2022-12-07T03:58:10;100307.56;;;1.70;100.00
71299;BME280;59083;47.974;21.722;2022-12-07T04:01:13;100305.78;;;1.71;100.00
71299;BME280;59083;47.974;21.722;2022-12-07T04:04:14;100289.31;;;1.69;100.00
71299;BME280;59083;47.974;21.722;2022-12-07T04:07:15;100302.03;;;1.73;100.00
71299;BME280;59083;47.974;21.722;2022-12-07T04:10:17;100296.78;;;1.73;100.00
71299;BME280;59083;47.974;21.722;2022-12-07T04:13:19;100289.62;;;1.75;100.00
71299;BME280;59083;47.974;21.722;2022-12-07T04:16:20;100284.37;;;1.75;100.00
71299;BME280;59083;47.974;21.722;2022-12-07T04:19:23;100283.53;;;1.75;100.00
71299;BME280;59083;47.974;21.722;2022-12-07T04:22:25;100280.78;;;1.76;100.00
71299;BME280;59083;47.974;21.722;2022-12-07T04:25:26;100281.84;;;1.74;100.00
71299;BME280;59083;47.974;21.722;2022-12-07T04:28:27;100283.94;;;1.70;100.00
71299;BME280;59083;47.974;21.722;2022-12-07T04:31:28;100289.62;;;1.75;100.00
71299;BME280;59083;47.974;21.722;2022-12-07T04:34:30;100290.44;;;1.76;100.00
71299;BME280;59083;47.974;21.722;2022-12-07T04:37:31;100286.28;;;1.73;100.00
71299;BME280;59083;47.974;21.722;2022-12-07T04:40:32;100293.09;;;1.85;100.00
71299;BME280;59083;47.974;21.722;2022-12-07T04:43:34;100278.28;;;1.84;100.00
71299;BME280;59083;47.974;21.722;2022-12-07T04:46:35;100283.00;;;1.90;100.00
71299;BME280;59083;47.974;21.722;2022-12-07T04:49:36;100289.94;;;1.91;100.00
71299;BME280;59083;47.974;21.722;2022-12-07T04:52:38;100286.06;;;1.95;100.00
71299;BME280;59083;47.974;21.722;2022-12-07T04:55:39;100293.28;;;1.93;100.00
71299;BME280;59083;47.974;21.722;2022-12-07T04:58:41;100297.16;;;1.99;100.00
71299;BME280;59083;47.974;21.722;2022-12-07T05:01:43;100295.78;;;2.04;100.00
71299;BME280;59083;47.974;21.722;2022-12-07T05:04:44;100284.56;;;2.02;100.00
71299;BME280;59083;47.974;21.722;2022-12-07T05:07:45;100273.63;;;1.97;100.00
71299;BME280;59083;47.974;21.722;2022-12-07T05:10:49;100283.06;;;2.10;100.00
71299;BME280;59083;47.974;21.722;2022-12-07T05:13:50;100290.53;;;2.04;100.00
71299;BME280;59083;47.974;21.722;2022-12-07T05:16:51;100290.78;;;2.11;100.00
71299;BME280;59083;47.974;21.722;2022-12-07T05:19:54;100288.88;;;2.13;100.00
71299;BME280;59083;47.974;21.722;2022-12-07T05:22:55;100284.44;;;2.14;100.00
71299;BME280;59083;47.974;21.722;2022-12-07T05:25:59;100295.09;;;2.12;100.00
71299;BME280;59083;47.974;21.722;2022-12-07T05:29:00;100292.88;;;2.17;100.00
71299;BME280;59083;47.974;21.722;2022-12-07T05:32:01;100294.66;;;2.17;100.00
71299;BME280;59083;47.974;21.722;2022-12-07T05:35:03;100306.31;;;2.24;100.00
71299;BME280;59083;47.974;21.722;2022-12-07T05:38:04;100288.63;;;2.26;100.00
71299;BME280;59083;47.974;21.722;2022-12-07T05:41:07;100303.44;;;2.27;100.00
71299;BME280;59083;47.974;21.722;2022-12-07T05:44:08;100290.56;;;2.33;100.00
71299;BME280;59083;47.974;21.722;2022-12-07T05:47:11;100301.09;;;2.33;100.00
71299;BME280;59083;47.974;21.722;2022-12-07T05:50:12;100294.47;;;2.39;100.00
71299;BME280;59083;47.974;21.722;2022-12-07T05:53:13;100298.47;;;2.33;100.00
71299;BME280;59083;47.974;21.722;2022-12-07T05:56:14;100292.78;;;2.38;100.00
71299;BME280;59083;47.974;21.722;2022-12-07T05:59:16;100279.78;;;2.27;100.00
71299;BME280;59083;47.974;21.722;2022-12-07T06:02:23;100290.56;;;2.43;100.00
71299;BME280;59083;47.974;21.722;2022-12-07T06:05:24;100285.97;;;2.45;100.00
71299;BME280;59083;47.974;21.722;2022-12-07T06:08:26;100288.47;;;2.46;100.00
71299;BME280;59083;47.974;21.722;2022-12-07T06:11:27;100290.84;;;2.49;100.00
71299;BME280;59083;47.974;21.722;2022-12-07T06:14:46;100288.91;;;2.52;100.00
71299;BME280;59083;47.974;21.722;2022-12-07T06:17:48;100296.41;;;2.56;100.00
71299;BME280;59083;47.974;21.722;2022-12-07T06:20:49;100287.81;;;2.54;100.00
71299;BME280;59083;47.974;21.722;2022-12-07T06:23:50;100282.25;;;2.57;100.00
71299;BME280;59083;47.974;21.722;2022-12-07T06:26:51;100287.50;;;2.57;100.00
71299;BME280;59083;47.974;21.722;2022-12-07T06:29:53;100290.84;;;2.59;100.00
71299;BME280;59083;47.974;21.722;2022-12-07T06:32:54;100288.09;;;2.61;100.00
71299;BME280;59083;47.974;21.722;2022-12-07T06:35:56;100291.25;;;2.64;100.00
71299;BME280;59083;47.974;21.722;2022-12-07T06:38:57;100291.97;;;2.66;100.00
71299;BME280;59083;47.974;21.722;2022-12-07T06:41:59;100287.09;;;2.71;100.00
71299;BME280;59083;47.974;21.722;2022-12-07T06:45:00;100291.13;;;2.75;100.00
71299;BME280;59083;47.974;21.722;2022-12-07T06:48:01;100287.22;;;2.79;100.00
71299;BME280;59083;47.974;21.722;2022-12-07T06:51:02;100287.78;;;2.83;100.00
71299;BME280;59083;47.974;21.722;2022-12-07T06:54:04;100293.88;;;2.83;100.00
71299;BME280;59083;47.974;21.722;2022-12-07T06:57:05;100287.22;;;2.79;100.00
71299;BME280;59083;47.974;21.722;2022-12-07T07:00:07;100295.41;;;2.76;100.00
71299;BME280;59083;47.974;21.722;2022-12-07T07:03:08;100291.53;;;2.80;100.00
71299;BME280;59083;47.974;21.722;2022-12-07T07:06:10;100294.84;;;2.82;100.00
71299;BME280;59083;47.974;21.722;2022-12-07T07:09:11;100286.97;;;2.82;100.00
71299;BME280;59083;47.974;21.722;2022-12-07T07:12:13;100289.72;;;2.81;100.00
71299;BME280;59083;47.974;21.722;2022-12-07T07:15:14;100297.19;;;2.85;100.00
71299;BME280;59083;47.974;21.722;2022-12-07T07:18:15;100286.12;;;2.82;100.00
71299;BME280;59083;47.974;21.722;2022-12-07T07:21:16;100292.22;;;2.82;100.00
71299;BME280;59083;47.974;21.722;2022-12-07T07:24:18;100296.34;;;2.85;100.00
71299;BME280;59083;47.974;21.722;2022-12-07T07:27:19;100292.62;;;2.87;100.00
71299;BME280;59083;47.974;21.722;2022-12-07T07:30:21;100302.06;;;2.90;100.00
71299;BME280;59083;47.974;21.722;2022-12-07T07:33:22;100299.97;;;2.94;100.00
71299;BME280;59083;47.974;21.722;2022-12-07T07:36:23;100290.81;;;2.98;100.00
71299;BME280;59083;47.974;21.722;2022-12-07T07:39:24;100294.13;;;3.00;100.00
71299;BME280;59083;47.974;21.722;2022-12-07T07:42:26;100294.13;;;3.00;100.00
71299;BME280;59083;47.974;21.722;2022-12-07T07:45:28;100284.72;;;2.87;100.00
71299;BME280;59083;47.974;21.722;2022-12-07T07:48:29;100300.78;;;3.04;100.00
71299;BME280;59083;47.974;21.722;2022-12-07T07:51:30;100301.63;;;2.95;100.00
71299;BME280;59083;47.974;21.722;2022-12-07T07:54:32;100287.78;;;2.92;100.00
71299;BME280;59083;47.974;21.722;2022-12-07T07:57:33;100303.16;;;3.07;100.00
71299;BME280;59083;47.974;21.722;2022-12-07T08:00:34;100305.47;;;3.10;100.00
71299;BME280;59083;47.974;21.722;2022-12-07T08:03:35;100284.00;;;3.05;100.00
71299;BME280;59083;47.974;21.722;2022-12-07T08:06:37;100305.78;;;3.07;100.00
71299;BME280;59083;47.974;21.722;2022-12-07T08:09:38;100297.19;;;3.05;100.00
71299;BME280;59083;47.974;21.722;2022-12-07T08:12:41;100298.72;;;3.07;100.00
71299;BME280;59083;47.974;21.722;2022-12-07T08:16:07;100299.94;;;3.13;100.00
71299;BME280;59083;47.974;21.722;2022-12-07T08:19:12;100297.72;;;3.18;100.00
71299;BME280;59083;47.974;21.722;2022-12-07T08:22:13;100290.25;;;3.04;100.00
71299;BME280;59083;47.974;21.722;2022-12-07T08:25:14;100296.31;;;3.14;100.00
71299;BME280;59083;47.974;21.722;2022-12-07T08:28:16;100296.62;;;3.11;100.00
71299;BME280;59083;47.974;21.722;2022-12-07T08:31:17;100301.19;;;3.18;100.00
71299;BME280;59083;47.974;21.722;2022-12-07T08:34:20;100287.84;;;3.20;100.00
71299;BME280;59083;47.974;21.722;2022-12-07T08:37:21;100290.88;;;3.25;100.00
71299;BME280;59083;47.974;21.722;2022-12-07T08:40:22;100289.75;;;3.37;100.00
71299;BME280;59083;47.974;21.722;2022-12-07T08:43:24;100303.22;;;3.34;100.00
71299;BME280;59083;47.974;21.722;2022-12-07T08:46:31;100304.56;;;3.38;100.00
71299;BME280;59083;47.974;21.722;2022-12-07T08:49:41;100304.56;;;3.38;100.00
71299;BME280;59083;47.974;21.722;2022-12-07T08:52:47;100303.59;;;3.39;100.00
71299;BME280;59083;47.974;21.722;2022-12-07T08:55:49;100283.69;;;3.27;100.00
71299;BME280;59083;47.974;21.722;2022-12-07T08:58:50;100308.69;;;3.50;100.00
71299;BME280;59083;47.974;21.722;2022-12-07T09:01:52;100308.81;;;3.58;100.00
71299;BME280;59083;47.974;21.722;2022-12-07T09:04:54;100298.94;;;3.60;100.00
71299;BME280;59083;47.974;21.722;2022-12-07T09:07:58;100292.72;;;3.61;100.00
71299;BME280;59083;47.974;21.722;2022-12-07T09:11:01;100287.84;;;3.66;100.00
71299;BME280;59083;47.974;21.722;2022-12-07T09:14:02;100290.19;;;3.69;100.00
71299;BME280;59083;47.974;21.722;2022-12-07T09:17:13;100291.16;;;3.68;100.00
71299;BME280;59083;47.974;21.722;2022-12-07T09:20:14;100292.25;;;3.76;100.00
71299;BME280;59083;47.974;21.722;2022-12-07T09:23:15;100290.28;;;3.78;99.94
71299;BME280;59083;47.974;21.722;2022-12-07T09:26:16;100281.78;;;3.84;100.00
71299;BME280;59083;47.974;21.722;2022-12-07T09:29:18;100271.63;;;3.89;100.00
71299;BME280;59083;47.974;21.722;2022-12-07T09:32:19;100277.37;;;4.02;99.78
71299;BME280;59083;47.974;21.722;2022-12-07T09:35:22;100276.41;;;4.03;99.46
71299;BME280;59083;47.974;21.722;2022-12-07T09:38:24;100275.72;;;4.01;98.91
71299;BME280;59083;47.974;21.722;2022-12-07T09:41:29;100271.81;;;4.05;99.15
71299;BME280;59083;47.974;21.722;2022-12-07T09:44:31;100272.81;;;4.04;99.83
71299;BME280;59083;47.974;21.722;2022-12-07T09:47:33;100280.78;;;4.12;99.61
71299;BME280;59083;47.974;21.722;2022-12-07T09:50:34;100276.22;;;4.14;99.20
71299;BME280;59083;47.974;21.722;2022-12-07T09:53:37;100275.63;;;4.20;99.31
71299;BME280;59083;47.974;21.722;2022-12-07T09:56:40;100265.50;;;4.33;97.95
71299;BME280;59083;47.974;21.722;2022-12-07T09:59:46;100264.16;;;4.29;98.84
71299;BME280;59083;47.974;21.722;2022-12-07T10:05:59;100245.47;;;4.40;97.92
71299;BME280;59083;47.974;21.722;2022-12-07T10:09:09;100264.63;;;4.42;97.68
71299;BME280;59083;47.974;21.722;2022-12-07T10:12:12;100275.22;;;4.50;97.55
71299;BME280;59083;47.974;21.722;2022-12-07T10:15:15;100261.81;;;4.62;98.36
71299;BME280;59083;47.974;21.722;2022-12-07T10:18:30;100263.22;;;4.74;97.93
71299;BME280;59083;47.974;21.722;2022-12-07T10:21:32;100264.50;;;4.87;97.45
71299;BME280;59083;47.974;21.722;2022-12-07T10:24:34;100266.22;;;4.79;97.27
71299;BME280;59083;47.974;21.722;2022-12-07T10:27:35;100262.56;;;4.72;97.05
71299;BME280;59083;47.974;21.722;2022-12-07T10:30:56;100260.41;;;4.49;98.09
71299;BME280;59083;47.974;21.722;2022-12-07T10:34:01;100259.84;;;4.28;99.25
71299;BME280;59083;47.974;21.722;2022-12-07T10:43:32;100271.84;;;4.40;98.93
71299;BME280;59083;47.974;21.722;2022-12-07T10:46:45;100256.63;;;4.34;100.00
71299;BME280;59083;47.974;21.722;2022-12-07T10:53:38;100264.25;;;4.37;99.20
71299;BME280;59083;47.974;21.722;2022-12-07T10:57:14;100259.03;;;4.45;98.70
71299;BME280;59083;47.974;21.722;2022-12-07T11:00:24;100264.44;;;4.62;98.28
71299;BME280;59083;47.974;21.722;2022-12-07T11:07:24;100243.19;;;4.45;99.04
71299;BME280;59083;47.974;21.722;2022-12-07T11:21:03;100237.44;;;4.68;97.33
71299;BME280;59083;47.974;21.722;2022-12-07T11:24:16;100239.66;;;4.72;97.25
71299;BME280;59083;47.974;21.722;2022-12-07T11:27:51;100230.72;;;4.73;97.49
71299;BME280;59083;47.974;21.722;2022-12-07T11:34:44;100235.25;;;4.81;98.30
71299;BME280;59083;47.974;21.722;2022-12-07T11:37:57;100232.00;;;4.87;97.80
71299;BME280;59083;47.974;21.722;2022-12-07T11:41:02;100229.41;;;4.95;97.27
71299;BME280;59083;47.974;21.722;2022-12-07T11:44:31;100211.47;;;4.81;96.57
71299;BME280;59083;47.974;21.722;2022-12-07T11:47:45;100225.94;;;4.94;96.34
71299;BME280;59083;47.974;21.722;2022-12-07T11:50:54;100227.28;;;4.98;96.80
71299;BME280;59083;47.974;21.722;2022-12-07T11:54:03;100215.94;;;5.06;96.82
71299;BME280;59083;47.974;21.722;2022-12-07T11:57:28;100213.75;;;5.02;97.48
71299;BME280;59083;47.974;21.722;2022-12-07T12:00:32;100212.34;;;5.15;97.49
71299;BME280;59083;47.974;21.722;2022-12-07T12:03:36;100206.31;;;4.97;97.37
71299;BME280;59083;47.974;21.722;2022-12-07T12:06:44;100204.44;;;5.15;97.84
71299;BME280;59083;47.974;21.722;2022-12-07T12:09:51;100199.66;;;5.19;97.20
71299;BME280;59083;47.974;21.722;2022-12-07T12:13:18;100211.94;;;5.28;96.15
71299;BME280;59083;47.974;21.722;2022-12-07T12:23:26;100215.41;;;5.28;95.83
71299;BME280;59083;47.974;21.722;2022-12-07T12:26:32;100195.84;;;5.13;96.25
71299;BME280;59083;47.974;21.722;2022-12-07T12:29:40;100212.72;;;5.20;96.30
71299;BME280;59083;47.974;21.722;2022-12-07T12:32:45;100218.19;;;5.27;96.24
71299;BME280;59083;47.974;21.722;2022-12-07T12:36:18;100210.44;;;5.25;96.17
71299;BME280;59083;47.974;21.722;2022-12-07T12:39:19;100193.56;;;5.18;95.77
71299;BME280;59083;47.974;21.722;2022-12-07T12:42:43;100205.50;;;5.30;96.84
71299;BME280;59083;47.974;21.722;2022-12-07T12:45:47;100198.94;;;5.34;96.07
71299;BME280;59083;47.974;21.722;2022-12-07T12:48:52;100203.47;;;5.24;96.25
71299;BME280;59083;47.974;21.722;2022-12-07T12:51:57;100208.47;;;5.27;96.10
71299;BME280;59083;47.974;21.722;2022-12-07T13:04:47;100211.31;;;5.08;97.71
71299;BME280;59083;47.974;21.722;2022-12-07T13:07:57;100205.88;;;5.10;97.81
71299;BME280;59083;47.974;21.722;2022-12-07T13:11:40;100209.22;;;5.12;97.04
71299;BME280;59083;47.974;21.722;2022-12-07T13:20:48;100185.50;;;4.94;97.26
71299;BME280;59083;47.974;21.722;2022-12-07T13:24:00;100199.69;;;4.93;98.10
71299;BME280;59083;47.974;21.722;2022-12-07T13:27:02;100201.34;;;4.94;98.32
71299;BME280;59083;47.974;21.722;2022-12-07T13:30:12;100205.94;;;4.92;98.72
71299;BME280;59083;47.974;21.722;2022-12-07T13:33:17;100207.97;;;4.98;98.59
71299;BME280;59083;47.974;21.722;2022-12-07T13:36:22;100209.19;;;4.86;98.64
71299;BME280;59083;47.974;21.722;2022-12-07T13:39:25;100218.94;;;4.85;99.24
71299;BME280;59083;47.974;21.722;2022-12-07T13:42:29;100211.81;;;4.78;99.32
71299;BME280;59083;47.974;21.722;2022-12-07T13:45:33;100216.87;;;4.71;100.00
71299;BME280;59083;47.974;21.722;2022-12-07T13:48:50;100216.31;;;4.68;100.00
71299;BME280;59083;47.974;21.722;2022-12-07T13:51:53;100209.72;;;4.64;100.00
71299;BME280;59083;47.974;21.722;2022-12-07T13:54:59;100219.75;;;4.60;100.00
71299;BME280;59083;47.974;21.722;2022-12-07T13:58:01;100218.69;;;4.53;100.00
71299;BME280;59083;47.974;21.722;2022-12-07T14:01:02;100212.91;;;4.49;100.00
71299;BME280;59083;47.974;21.722;2022-12-07T14:07:30;100221.06;;;4.38;100.00
71299;BME280;59083;47.974;21.722;2022-12-07T14:10:32;100211.78;;;4.34;100.00
71299;BME280;59083;47.974;21.722;2022-12-07T14:13:39;100205.84;;;4.32;100.00
71299;BME280;59083;47.974;21.722;2022-12-07T14:16:42;100205.63;;;4.26;100.00
71299;BME280;59083;47.974;21.722;2022-12-07T14:20:01;100202.06;;;4.17;100.00
71299;BME280;59083;47.974;21.722;2022-12-07T14:23:04;100204.31;;;4.12;100.00
71299;BME280;59083;47.974;21.722;2022-12-07T14:26:14;100209.38;;;4.05;100.00
71299;BME280;59083;47.974;21.722;2022-12-07T14:32:28;100206.44;;;3.91;100.00
71299;BME280;59083;47.974;21.722;2022-12-07T14:35:31;100169.81;;;3.88;100.00
71299;BME280;59083;47.974;21.722;2022-12-07T14:38:32;100167.34;;;3.86;100.00
71299;BME280;59083;47.974;21.722;2022-12-07T14:41:34;100168.47;;;3.84;100.00
71299;BME280;59083;47.974;21.722;2022-12-07T14:44:53;100180.94;;;3.82;100.00
71299;BME280;59083;47.974;21.722;2022-12-07T14:47:54;100196.53;;;3.75;100.00
71299;BME280;59083;47.974;21.722;2022-12-07T14:50:55;100216.56;;;3.68;100.00
71299;BME280;59083;47.974;21.722;2022-12-07T14:53:57;100222.94;;;3.65;100.00
71299;BME280;59083;47.974;21.722;2022-12-07T14:56:58;100223.25;;;3.62;100.00
71299;BME280;59083;47.974;21.722;2022-12-07T15:00:00;100220.59;;;3.62;100.00
71299;BME280;59083;47.974;21.722;2022-12-07T15:03:01;100217.97;;;3.62;100.00
71299;BME280;59083;47.974;21.722;2022-12-07T15:06:03;100213.22;;;3.66;100.00
71299;BME280;59083;47.974;21.722;2022-12-07T15:09:05;100225.94;;;3.70;100.00
71299;BME280;59083;47.974;21.722;2022-12-07T15:12:07;100232.28;;;3.78;100.00
71299;BME280;59083;47.974;21.722;2022-12-07T15:15:08;100228.09;;;3.85;100.00
71299;BME280;59083;47.974;21.722;2022-12-07T15:18:09;100233.47;;;3.93;100.00
71299;BME280;59083;47.974;21.722;2022-12-07T15:21:14;100230.37;;;3.97;100.00
71299;BME280;59083;47.974;21.722;2022-12-07T15:24:15;100233.09;;;4.05;100.00
71299;BME280;59083;47.974;21.722;2022-12-07T15:27:17;100229.34;;;4.08;100.00
71299;BME280;59083;47.974;21.722;2022-12-07T15:30:18;100227.41;;;4.10;100.00
71299;BME280;59083;47.974;21.722;2022-12-07T15:33:19;100225.41;;;4.12;100.00
71299;BME280;59083;47.974;21.722;2022-12-07T15:36:23;100234.31;;;4.11;100.00
71299;BME280;59083;47.974;21.722;2022-12-07T15:39:24;100224.06;;;4.08;100.00
71299;BME280;59083;47.974;21.722;2022-12-07T15:42:26;100230.63;;;4.04;100.00
71299;BME280;59083;47.974;21.722;2022-12-07T15:45:27;100229.47;;;3.89;100.00
71299;BME280;59083;47.974;21.722;2022-12-07T15:48:28;100242.84;;;3.78;100.00
71299;BME280;59083;47.974;21.722;2022-12-07T15:51:29;100245.41;;;3.69;100.00
71299;BME280;59083;47.974;21.722;2022-12-07T15:54:32;100251.66;;;3.59;100.00
71299;BME280;59083;47.974;21.722;2022-12-07T15:57:35;100233.00;;;3.52;100.00
71299;BME280;59083;47.974;21.722;2022-12-07T16:00:38;100240.53;;;3.47;100.00
71299;BME280;59083;47.974;21.722;2022-12-07T16:03:39;100244.69;;;3.40;100.00
71299;BME280;59083;47.974;21.722;2022-12-07T16:06:41;100243.03;;;3.39;100.00
71299;BME280;59083;47.974;21.722;2022-12-07T16:09:43;100248.31;;;3.39;100.00
71299;BME280;59083;47.974;21.722;2022-12-07T16:12:44;100237.75;;;3.39;100.00
71299;BME280;59083;47.974;21.722;2022-12-07T16:15:45;100244.31;;;3.35;100.00
71299;BME280;59083;47.974;21.722;2022-12-07T16:18:46;100235.00;;;3.31;100.00
71299;BME280;59083;47.974;21.722;2022-12-07T16:21:48;100234.75;;;3.34;100.00
71299;BME280;59083;47.974;21.722;2022-12-07T16:24:49;100233.66;;;3.27;100.00
71299;BME280;59083;47.974;21.722;2022-12-07T16:27:51;100247.50;;;3.29;100.00
71299;BME280;59083;47.974;21.722;2022-12-07T16:31:03;100243.91;;;3.30;100.00
71299;BME280;59083;47.974;21.722;2022-12-07T16:34:04;100241.41;;;3.28;100.00
71299;BME280;59083;47.974;21.722;2022-12-07T16:37:05;100248.09;;;3.23;100.00
71299;BME280;59083;47.974;21.722;2022-12-07T16:40:07;100247.25;;;3.22;100.00
71299;BME280;59083;47.974;21.722;2022-12-07T16:43:10;100242.81;;;3.23;100.00
71299;BME280;59083;47.974;21.722;2022-12-07T16:46:13;100243.78;;;3.22;100.00
71299;BME280;59083;47.974;21.722;2022-12-07T16:49:16;100253.78;;;3.18;100.00
71299;BME280;59083;47.974;21.722;2022-12-07T16:52:18;100247.28;;;3.13;100.00
71299;BME280;59083;47.974;21.722;2022-12-07T16:55:19;100248.41;;;3.10;100.00
71299;BME280;59083;47.974;21.722;2022-12-07T16:58:21;100242.16;;;3.11;100.00
71299;BME280;59083;47.974;21.722;2022-12-07T17:01:22;100243.25;;;3.09;100.00
71299;BME280;59083;47.974;21.722;2022-12-07T17:04:24;100237.72;;;3.02;100.00
71299;BME280;59083;47.974;21.722;2022-12-07T17:07:25;100242.19;;;3.02;100.00
71299;BME280;59083;47.974;21.722;2022-12-07T17:10:26;100247.72;;;2.99;100.00
71299;BME280;59083;47.974;21.722;2022-12-07T17:13:27;100247.03;;;2.97;100.00
71299;BME280;59083;47.974;21.722;2022-12-07T17:16:47;100247.19;;;2.95;100.00
71299;BME280;59083;47.974;21.722;2022-12-07T17:19:48;100250.66;;;2.96;100.00
71299;BME280;59083;47.974;21.722;2022-12-07T17:22:50;100257.84;;;2.94;100.00
71299;BME280;59083;47.974;21.722;2022-12-07T17:25:51;100250.53;;;2.87;100.00